Weldon, Iowa
Current Conditions -  °F | °C
As of 6:35 AM on Sunday 23 Nov 2014 (Local Time) from KI75 Reporting Station
Haze Haze  
Wind Chill: 52°   Ceiling: 200
Heat Index: 52°   Visibility: 3mi
Dew Point: 51°   Wind: 8mph
Humidity: 96%   Direction: 170°S
Pressure: 29.55"   Gusts: NA
Location:  40.9°N, 93.73°W
Report Text: KI75 231235Z AUTO 17007KT 3SM BR OVC002 11/11 A2955 RMK AO2 T01110105
Loading
Personal Weather Stations






























Interactive Weather Map New forecast layout! Learn more

10-Day Weather Forecast

Advertisements
Track Severe Weather on mobile